sensor_id;sensor_type;location;lat;lon;timestamp;P1;durP1;ratioP1;P2;durP2;ratioP2
44508;SDS011;30214;52.246;14.408;2023-03-04T00:01:50;33.70;;;17.63;;
44508;SDS011;30214;52.246;14.408;2023-03-04T00:04:27;37.03;;;18.40;;
44508;SDS011;30214;52.246;14.408;2023-03-04T00:06:57;32.67;;;16.88;;
44508;SDS011;30214;52.246;14.408;2023-03-04T00:09:25;30.63;;;16.08;;
44508;SDS011;30214;52.246;14.408;2023-03-04T00:11:56;31.55;;;16.75;;
44508;SDS011;30214;52.246;14.408;2023-03-04T00:14:26;31.48;;;16.63;;
44508;SDS011;30214;52.246;14.408;2023-03-04T00:17:00;28.52;;;16.45;;
44508;SDS011;30214;52.246;14.408;2023-03-04T00:19:34;35.45;;;16.75;;
44508;SDS011;30214;52.246;14.408;2023-03-04T00:22:03;28.25;;;16.30;;
44508;SDS011;30214;52.246;14.408;2023-03-04T00:24:33;32.10;;;16.40;;
44508;SDS011;30214;52.246;14.408;2023-03-04T00:27:03;27.08;;;14.38;;
44508;SDS011;30214;52.246;14.408;2023-03-04T00:29:32;31.38;;;15.55;;
44508;SDS011;30214;52.246;14.408;2023-03-04T00:32:11;27.60;;;15.18;;
44508;SDS011;30214;52.246;14.408;2023-03-04T00:34:43;34.35;;;17.02;;
44508;SDS011;30214;52.246;14.408;2023-03-04T00:37:21;31.58;;;16.10;;
44508;SDS011;30214;52.246;14.408;2023-03-04T00:39:50;34.15;;;15.52;;
44508;SDS011;30214;52.246;14.408;2023-03-04T00:42:22;28.38;;;15.23;;
44508;SDS011;30214;52.246;14.408;2023-03-04T00:44:54;36.15;;;16.75;;
44508;SDS011;30214;52.246;14.408;2023-03-04T00:47:26;29.60;;;15.43;;
44508;SDS011;30214;52.246;14.408;2023-03-04T00:49:55;28.20;;;15.68;;
44508;SDS011;30214;52.246;14.408;2023-03-04T00:52:26;30.45;;;16.05;;
44508;SDS011;30214;52.246;14.408;2023-03-04T00:54:55;34.03;;;17.50;;
44508;SDS011;30214;52.246;14.408;2023-03-04T00:57:26;33.90;;;15.93;;
44508;SDS011;30214;52.246;14.408;2023-03-04T00:59:56;33.80;;;15.68;;
44508;SDS011;30214;52.246;14.408;2023-03-04T01:02:31;31.55;;;16.70;;
44508;SDS011;30214;52.246;14.408;2023-03-04T01:07:32;31.52;;;15.70;;
44508;SDS011;30214;52.246;14.408;2023-03-04T01:10:01;31.83;;;16.20;;
44508;SDS011;30214;52.246;14.408;2023-03-04T01:12:31;33.22;;;17.33;;
44508;SDS011;30214;52.246;14.408;2023-03-04T01:15:08;32.75;;;16.52;;
44508;SDS011;30214;52.246;14.408;2023-03-04T01:17:43;32.83;;;18.20;;
44508;SDS011;30214;52.246;14.408;2023-03-04T01:20:14;32.22;;;17.00;;
44508;SDS011;30214;52.246;14.408;2023-03-04T01:22:46;34.33;;;17.02;;
44508;SDS011;30214;52.246;14.408;2023-03-04T01:25:23;35.13;;;16.75;;
44508;SDS011;30214;52.246;14.408;2023-03-04T01:27:58;32.17;;;16.83;;
44508;SDS011;30214;52.246;14.408;2023-03-04T01:30:35;30.50;;;15.17;;
44508;SDS011;30214;52.246;14.408;2023-03-04T01:33:06;31.75;;;16.30;;
44508;SDS011;30214;52.246;14.408;2023-03-04T01:35:37;30.80;;;15.77;;
44508;SDS011;30214;52.246;14.408;2023-03-04T01:38:06;35.92;;;16.58;;
44508;SDS011;30214;52.246;14.408;2023-03-04T01:40:39;28.58;;;15.73;;
44508;SDS011;30214;52.246;14.408;2023-03-04T01:43:12;31.55;;;16.25;;
44508;SDS011;30214;52.246;14.408;2023-03-04T01:45:46;34.05;;;15.63;;
44508;SDS011;30214;52.246;14.408;2023-03-04T01:48:18;35.35;;;16.05;;
44508;SDS011;30214;52.246;14.408;2023-03-04T01:50:54;32.92;;;16.08;;
44508;SDS011;30214;52.246;14.408;2023-03-04T01:53:28;32.45;;;16.30;;
44508;SDS011;30214;52.246;14.408;2023-03-04T01:56:00;33.83;;;16.50;;
44508;SDS011;30214;52.246;14.408;2023-03-04T01:58:38;36.78;;;16.33;;
44508;SDS011;30214;52.246;14.408;2023-03-04T02:01:10;33.15;;;15.20;;
44508;SDS011;30214;52.246;14.408;2023-03-04T02:03:45;34.45;;;15.50;;
44508;SDS011;30214;52.246;14.408;2023-03-04T02:06:19;31.70;;;15.98;;
44508;SDS011;30214;52.246;14.408;2023-03-04T02:08:49;33.53;;;16.13;;
44508;SDS011;30214;52.246;14.408;2023-03-04T02:11:18;32.78;;;14.93;;
44508;SDS011;30214;52.246;14.408;2023-03-04T02:13:49;38.22;;;17.23;;
44508;SDS011;30214;52.246;14.408;2023-03-04T02:16:20;33.78;;;17.10;;
44508;SDS011;30214;52.246;14.408;2023-03-04T02:18:49;29.20;;;15.48;;
44508;SDS011;30214;52.246;14.408;2023-03-04T02:21:20;30.17;;;15.15;;
44508;SDS011;30214;52.246;14.408;2023-03-04T02:23:54;33.97;;;16.63;;
44508;SDS011;30214;52.246;14.408;2023-03-04T02:26:34;31.60;;;16.25;;
44508;SDS011;30214;52.246;14.408;2023-03-04T02:29:05;32.53;;;14.70;;
44508;SDS011;30214;52.246;14.408;2023-03-04T02:31:36;29.48;;;14.45;;
44508;SDS011;30214;52.246;14.408;2023-03-04T02:34:06;30.42;;;14.57;;
44508;SDS011;30214;52.246;14.408;2023-03-04T02:36:39;37.58;;;16.27;;
44508;SDS011;30214;52.246;14.408;2023-03-04T02:39:10;31.15;;;15.05;;
44508;SDS011;30214;52.246;14.408;2023-03-04T02:41:41;31.55;;;14.65;;
44508;SDS011;30214;52.246;14.408;2023-03-04T02:44:10;33.30;;;15.00;;
44508;SDS011;30214;52.246;14.408;2023-03-04T02:46:44;30.45;;;14.57;;
44508;SDS011;30214;52.246;14.408;2023-03-04T02:49:15;35.20;;;13.68;;
44508;SDS011;30214;52.246;14.408;2023-03-04T02:51:44;33.30;;;14.48;;
44508;SDS011;30214;52.246;14.408;2023-03-04T02:54:15;31.45;;;13.93;;
44508;SDS011;30214;52.246;14.408;2023-03-04T02:56:47;33.15;;;13.80;;
44508;SDS011;30214;52.246;14.408;2023-03-04T02:59:17;30.98;;;13.40;;
44508;SDS011;30214;52.246;14.408;2023-03-04T03:01:47;30.08;;;13.40;;
44508;SDS011;30214;52.246;14.408;2023-03-04T03:04:15;28.45;;;13.13;;
44508;SDS011;30214;52.246;14.408;2023-03-04T03:06:44;29.30;;;12.93;;
44508;SDS011;30214;52.246;14.408;2023-03-04T03:09:12;31.75;;;13.30;;
44508;SDS011;30214;52.246;14.408;2023-03-04T03:11:40;29.23;;;11.80;;
44508;SDS011;30214;52.246;14.408;2023-03-04T03:14:09;27.58;;;13.45;;
44508;SDS011;30214;52.246;14.408;2023-03-04T03:16:37;26.92;;;12.57;;
44508;SDS011;30214;52.246;14.408;2023-03-04T03:19:05;30.90;;;12.30;;
44508;SDS011;30214;52.246;14.408;2023-03-04T03:21:34;27.70;;;12.00;;
44508;SDS011;30214;52.246;14.408;2023-03-04T03:24:03;31.63;;;12.52;;
44508;SDS011;30214;52.246;14.408;2023-03-04T03:26:30;32.45;;;12.18;;
44508;SDS011;30214;52.246;14.408;2023-03-04T03:28:57;33.03;;;12.77;;
44508;SDS011;30214;52.246;14.408;2023-03-04T03:31:28;30.20;;;11.15;;
44508;SDS011;30214;52.246;14.408;2023-03-04T03:33:55;28.65;;;13.27;;
44508;SDS011;30214;52.246;14.408;2023-03-04T03:36:22;32.35;;;13.80;;
44508;SDS011;30214;52.246;14.408;2023-03-04T03:38:49;29.27;;;11.85;;
44508;SDS011;30214;52.246;14.408;2023-03-04T03:41:17;33.08;;;12.20;;
44508;SDS011;30214;52.246;14.408;2023-03-04T03:43:45;31.48;;;12.13;;
44508;SDS011;30214;52.246;14.408;2023-03-04T03:46:12;32.05;;;11.05;;
44508;SDS011;30214;52.246;14.408;2023-03-04T03:48:40;34.83;;;11.77;;
44508;SDS011;30214;52.246;14.408;2023-03-04T03:51:08;30.13;;;11.30;;
44508;SDS011;30214;52.246;14.408;2023-03-04T03:53:35;30.20;;;12.45;;
44508;SDS011;30214;52.246;14.408;2023-03-04T03:56:03;29.05;;;11.55;;
44508;SDS011;30214;52.246;14.408;2023-03-04T03:58:31;33.20;;;10.80;;
44508;SDS011;30214;52.246;14.408;2023-03-04T04:00:58;32.95;;;11.27;;
44508;SDS011;30214;52.246;14.408;2023-03-04T04:03:25;33.13;;;12.45;;
44508;SDS011;30214;52.246;14.408;2023-03-04T04:05:55;29.38;;;11.07;;
44508;SDS011;30214;52.246;14.408;2023-03-04T04:08:22;31.65;;;11.48;;
44508;SDS011;30214;52.246;14.408;2023-03-04T04:10:49;29.08;;;11.30;;
44508;SDS011;30214;52.246;14.408;2023-03-04T04:13:17;26.35;;;10.38;;
44508;SDS011;30214;52.246;14.408;2023-03-04T04:15:44;32.55;;;10.68;;
44508;SDS011;30214;52.246;14.408;2023-03-04T04:18:11;28.30;;;11.35;;
44508;SDS011;30214;52.246;14.408;2023-03-04T04:20:39;30.05;;;10.48;;
44508;SDS011;30214;52.246;14.408;2023-03-04T04:23:07;26.10;;;9.65;;
44508;SDS011;30214;52.246;14.408;2023-03-04T04:25:34;24.95;;;10.18;;
44508;SDS011;30214;52.246;14.408;2023-03-04T04:28:02;26.85;;;10.52;;
44508;SDS011;30214;52.246;14.408;2023-03-04T04:30:29;26.02;;;9.80;;
44508;SDS011;30214;52.246;14.408;2023-03-04T04:32:56;24.60;;;9.85;;
44508;SDS011;30214;52.246;14.408;2023-03-04T04:35:25;26.38;;;9.75;;
44508;SDS011;30214;52.246;14.408;2023-03-04T04:37:53;29.80;;;9.77;;
44508;SDS011;30214;52.246;14.408;2023-03-04T04:40:22;27.67;;;9.73;;
44508;SDS011;30214;52.246;14.408;2023-03-04T04:42:49;30.80;;;9.35;;
44508;SDS011;30214;52.246;14.408;2023-03-04T04:45:16;23.08;;;9.75;;
44508;SDS011;30214;52.246;14.408;2023-03-04T04:47:44;27.95;;;9.63;;
44508;SDS011;30214;52.246;14.408;2023-03-04T04:50:11;20.17;;;9.93;;
44508;SDS011;30214;52.246;14.408;2023-03-04T04:52:38;27.95;;;9.35;;
44508;SDS011;30214;52.246;14.408;2023-03-04T04:55:06;29.25;;;9.13;;
44508;SDS011;30214;52.246;14.408;2023-03-04T04:57:36;29.05;;;9.30;;
44508;SDS011;30214;52.246;14.408;2023-03-04T05:00:04;23.27;;;9.05;;
44508;SDS011;30214;52.246;14.408;2023-03-04T05:02:32;27.55;;;9.02;;
44508;SDS011;30214;52.246;14.408;2023-03-04T05:05:00;28.02;;;9.23;;
44508;SDS011;30214;52.246;14.408;2023-03-04T05:07:28;24.52;;;9.20;;
44508;SDS011;30214;52.246;14.408;2023-03-04T05:09:55;22.05;;;8.30;;
44508;SDS011;30214;52.246;14.408;2023-03-04T05:12:22;28.70;;;8.73;;
44508;SDS011;30214;52.246;14.408;2023-03-04T05:14:51;28.67;;;9.38;;
44508;SDS011;30214;52.246;14.408;2023-03-04T05:17:18;26.10;;;8.95;;
44508;SDS011;30214;52.246;14.408;2023-03-04T05:19:46;27.15;;;8.45;;
44508;SDS011;30214;52.246;14.408;2023-03-04T05:22:13;30.05;;;8.93;;
44508;SDS011;30214;52.246;14.408;2023-03-04T05:24:41;25.20;;;8.05;;
44508;SDS011;30214;52.246;14.408;2023-03-04T05:27:08;25.73;;;8.63;;
44508;SDS011;30214;52.246;14.408;2023-03-04T05:29:35;27.40;;;8.18;;
44508;SDS011;30214;52.246;14.408;2023-03-04T05:32:04;21.77;;;8.50;;
44508;SDS011;30214;52.246;14.408;2023-03-04T05:34:31;20.38;;;7.32;;
44508;SDS011;30214;52.246;14.408;2023-03-04T05:36:59;28.25;;;8.25;;
44508;SDS011;30214;52.246;14.408;2023-03-04T05:39:26;25.50;;;7.22;;
44508;SDS011;30214;52.246;14.408;2023-03-04T05:41:54;23.42;;;7.63;;
44508;SDS011;30214;52.246;14.408;2023-03-04T05:44:21;27.38;;;7.78;;
44508;SDS011;30214;52.246;14.408;2023-03-04T05:46:48;22.27;;;8.18;;
44508;SDS011;30214;52.246;14.408;2023-03-04T05:49:17;27.23;;;8.43;;
44508;SDS011;30214;52.246;14.408;2023-03-04T05:51:45;27.05;;;7.93;;
44508;SDS011;30214;52.246;14.408;2023-03-04T05:54:12;26.67;;;8.02;;
44508;SDS011;30214;52.246;14.408;2023-03-04T05:56:40;22.42;;;7.85;;
44508;SDS011;30214;52.246;14.408;2023-03-04T05:59:08;27.00;;;7.72;;
44508;SDS011;30214;52.246;14.408;2023-03-04T06:01:35;24.67;;;6.68;;
44508;SDS011;30214;52.246;14.408;2023-03-04T06:04:02;26.38;;;6.80;;
44508;SDS011;30214;52.246;14.408;2023-03-04T06:06:31;20.65;;;7.38;;
44508;SDS011;30214;52.246;14.408;2023-03-04T06:08:59;26.40;;;7.10;;
44508;SDS011;30214;52.246;14.408;2023-03-04T06:11:26;21.75;;;7.22;;
44508;SDS011;30214;52.246;14.408;2023-03-04T06:13:53;25.85;;;6.93;;
44508;SDS011;30214;52.246;14.408;2023-03-04T06:16:21;29.20;;;6.35;;
44508;SDS011;30214;52.246;14.408;2023-03-04T06:18:48;17.95;;;6.25;;
44508;SDS011;30214;52.246;14.408;2023-03-04T06:21:15;28.00;;;6.95;;
44508;SDS011;30214;52.246;14.408;2023-03-04T06:23:44;29.00;;;6.72;;
44508;SDS011;30214;52.246;14.408;2023-03-04T06:26:11;18.33;;;5.93;;
44508;SDS011;30214;52.246;14.408;2023-03-04T06:28:39;23.85;;;7.22;;
44508;SDS011;30214;52.246;14.408;2023-03-04T06:31:06;23.70;;;7.15;;
44508;SDS011;30214;52.246;14.408;2023-03-04T06:33:34;23.92;;;6.28;;
44508;SDS011;30214;52.246;14.408;2023-03-04T06:36:01;22.30;;;5.85;;
44508;SDS011;30214;52.246;14.408;2023-03-04T06:38:29;23.42;;;6.45;;
44508;SDS011;30214;52.246;14.408;2023-03-04T06:41:04;18.23;;;5.68;;
44508;SDS011;30214;52.246;14.408;2023-03-04T06:43:33;22.88;;;5.50;;
44508;SDS011;30214;52.246;14.408;2023-03-04T06:46:00;17.48;;;6.28;;
44508;SDS011;30214;52.246;14.408;2023-03-04T06:48:28;16.85;;;5.28;;
44508;SDS011;30214;52.246;14.408;2023-03-04T06:50:55;15.45;;;5.28;;
44508;SDS011;30214;52.246;14.408;2023-03-04T06:53:22;17.02;;;5.53;;
44508;SDS011;30214;52.246;14.408;2023-03-04T06:55:50;20.60;;;6.07;;
44508;SDS011;30214;52.246;14.408;2023-03-04T06:58:18;16.55;;;5.00;;
44508;SDS011;30214;52.246;14.408;2023-03-04T07:00:45;16.92;;;5.07;;
44508;SDS011;30214;52.246;14.408;2023-03-04T07:03:13;17.73;;;5.18;;
44508;SDS011;30214;52.246;14.408;2023-03-04T07:05:41;19.40;;;5.32;;
44508;SDS011;30214;52.246;14.408;2023-03-04T07:08:08;19.02;;;4.95;;
44508;SDS011;30214;52.246;14.408;2023-03-04T07:10:36;16.20;;;4.18;;
44508;SDS011;30214;52.246;14.408;2023-03-04T07:13:03;21.10;;;5.18;;
44508;SDS011;30214;52.246;14.408;2023-03-04T07:15:32;21.65;;;4.82;;
44508;SDS011;30214;52.246;14.408;2023-03-04T07:18:00;19.73;;;4.90;;
44508;SDS011;30214;52.246;14.408;2023-03-04T07:20:27;13.95;;;3.95;;
44508;SDS011;30214;52.246;14.408;2023-03-04T07:22:55;15.93;;;5.15;;
44508;SDS011;30214;52.246;14.408;2023-03-04T07:25:22;20.50;;;7.00;;
44508;SDS011;30214;52.246;14.408;2023-03-04T07:27:49;18.08;;;4.40;;
44508;SDS011;30214;52.246;14.408;2023-03-04T07:30:17;18.90;;;4.47;;
44508;SDS011;30214;52.246;14.408;2023-03-04T07:32:47;17.45;;;4.50;;
44508;SDS011;30214;52.246;14.408;2023-03-04T07:35:15;18.08;;;4.80;;
44508;SDS011;30214;52.246;14.408;2023-03-04T07:37:42;15.13;;;4.90;;
44508;SDS011;30214;52.246;14.408;2023-03-04T07:40:10;12.60;;;4.30;;
44508;SDS011;30214;52.246;14.408;2023-03-04T07:42:38;20.75;;;4.72;;
44508;SDS011;30214;52.246;14.408;2023-03-04T07:45:10;17.55;;;4.40;;
44508;SDS011;30214;52.246;14.408;2023-03-04T07:47:37;15.65;;;4.60;;
44508;SDS011;30214;52.246;14.408;2023-03-04T07:50:09;17.08;;;3.83;;
44508;SDS011;30214;52.246;14.408;2023-03-04T07:52:38;16.27;;;4.65;;
44508;SDS011;30214;52.246;14.408;2023-03-04T07:55:06;17.35;;;6.70;;
44508;SDS011;30214;52.246;14.408;2023-03-04T07:57:34;16.85;;;4.22;;
44508;SDS011;30214;52.246;14.408;2023-03-04T08:00:05;16.60;;;4.30;;
44508;SDS011;30214;52.246;14.408;2023-03-04T08:02:37;16.73;;;4.97;;
44508;SDS011;30214;52.246;14.408;2023-03-04T08:05:07;22.52;;;8.57;;
44508;SDS011;30214;52.246;14.408;2023-03-04T08:07:35;15.98;;;5.50;;
44508;SDS011;30214;52.246;14.408;2023-03-04T08:10:03;17.63;;;6.22;;
44508;SDS011;30214;52.246;14.408;2023-03-04T08:12:32;21.15;;;5.75;;
44508;SDS011;30214;52.246;14.408;2023-03-04T08:15:00;15.43;;;3.55;;
44508;SDS011;30214;52.246;14.408;2023-03-04T08:17:30;8.98;;;3.60;;
44508;SDS011;30214;52.246;14.408;2023-03-04T08:19:57;13.25;;;5.22;;
44508;SDS011;30214;52.246;14.408;2023-03-04T08:22:26;11.65;;;3.45;;
44508;SDS011;30214;52.246;14.408;2023-03-04T08:24:55;11.77;;;3.97;;
44508;SDS011;30214;52.246;14.408;2023-03-04T08:27:22;16.90;;;7.25;;
44508;SDS011;30214;52.246;14.408;2023-03-04T08:29:50;15.18;;;4.75;;
44508;SDS011;30214;52.246;14.408;2023-03-04T08:32:17;11.70;;;3.30;;
44508;SDS011;30214;52.246;14.408;2023-03-04T08:34:44;12.15;;;4.07;;
44508;SDS011;30214;52.246;14.408;2023-03-04T08:37:12;12.57;;;3.38;;
44508;SDS011;30214;52.246;14.408;2023-03-04T08:39:41;14.10;;;3.40;;
44508;SDS011;30214;52.246;14.408;2023-03-04T08:42:08;9.50;;;3.28;;
44508;SDS011;30214;52.246;14.408;2023-03-04T08:44:36;8.82;;;2.83;;
44508;SDS011;30214;52.246;14.408;2023-03-04T08:47:03;14.18;;;4.18;;
44508;SDS011;30214;52.246;14.408;2023-03-04T08:49:33;8.48;;;3.45;;
44508;SDS011;30214;52.246;14.408;2023-03-04T08:52:00;11.43;;;3.53;;
44508;SDS011;30214;52.246;14.408;2023-03-04T08:54:27;6.90;;;2.80;;
44508;SDS011;30214;52.246;14.408;2023-03-04T08:56:56;12.75;;;3.65;;
44508;SDS011;30214;52.246;14.408;2023-03-04T08:59:23;11.90;;;3.20;;
44508;SDS011;30214;52.246;14.408;2023-03-04T09:01:51;11.85;;;3.10;;
44508;SDS011;30214;52.246;14.408;2023-03-04T09:04:18;8.90;;;3.05;;
44508;SDS011;30214;52.246;14.408;2023-03-04T09:06:46;10.88;;;3.58;;
44508;SDS011;30214;52.246;14.408;2023-03-04T09:09:15;8.68;;;2.72;;
44508;SDS011;30214;52.246;14.408;2023-03-04T09:11:42;8.50;;;3.88;;
44508;SDS011;30214;52.246;14.408;2023-03-04T09:14:11;12.07;;;5.28;;
44508;SDS011;30214;52.246;14.408;2023-03-04T09:16:40;9.52;;;3.53;;
44508;SDS011;30214;52.246;14.408;2023-03-04T09:19:08;7.40;;;2.67;;
44508;SDS011;30214;52.246;14.408;2023-03-04T09:21:36;8.07;;;3.65;;
44508;SDS011;30214;52.246;14.408;2023-03-04T09:24:05;10.13;;;2.58;;
44508;SDS011;30214;52.246;14.408;2023-03-04T09:26:33;8.38;;;2.45;;
44508;SDS011;30214;52.246;14.408;2023-03-04T09:29:00;6.68;;;2.30;;
44508;SDS011;30214;52.246;14.408;2023-03-04T09:31:30;6.30;;;2.33;;
44508;SDS011;30214;52.246;14.408;2023-03-04T09:33:58;7.78;;;2.50;;
44508;SDS011;30214;52.246;14.408;2023-03-04T09:36:26;6.90;;;2.88;;
44508;SDS011;30214;52.246;14.408;2023-03-04T09:38:53;7.95;;;3.20;;
44508;SDS011;30214;52.246;14.408;2023-03-04T09:41:22;6.35;;;2.90;;
44508;SDS011;30214;52.246;14.408;2023-03-04T09:43:52;8.82;;;2.72;;
44508;SDS011;30214;52.246;14.408;2023-03-04T09:46:22;5.88;;;2.60;;
44508;SDS011;30214;52.246;14.408;2023-03-04T09:48:58;9.20;;;3.42;;
44508;SDS011;30214;52.246;14.408;2023-03-04T09:51:30;8.60;;;3.28;;
44508;SDS011;30214;52.246;14.408;2023-03-04T09:54:14;9.65;;;3.03;;
44508;SDS011;30214;52.246;14.408;2023-03-04T09:56:51;8.30;;;3.00;;
44508;SDS011;30214;52.246;14.408;2023-03-04T09:59:38;8.05;;;3.30;;
44508;SDS011;30214;52.246;14.408;2023-03-04T10:02:14;7.68;;;3.17;;
44508;SDS011;30214;52.246;14.408;2023-03-04T10:04:50;9.52;;;3.60;;
44508;SDS011;30214;52.246;14.408;2023-03-04T10:07:22;8.25;;;3.67;;
44508;SDS011;30214;52.246;14.408;2023-03-04T10:09:53;11.82;;;3.45;;
44508;SDS011;30214;52.246;14.408;2023-03-04T10:12:26;6.40;;;2.90;;
44508;SDS011;30214;52.246;14.408;2023-03-04T10:14:57;10.65;;;3.63;;
44508;SDS011;30214;52.246;14.408;2023-03-04T10:17:28;7.13;;;2.53;;
44508;SDS011;30214;52.246;14.408;2023-03-04T10:20:04;20.75;;;12.93;;
44508;SDS011;30214;52.246;14.408;2023-03-04T10:22:38;9.98;;;5.03;;
44508;SDS011;30214;52.246;14.408;2023-03-04T10:25:14;11.50;;;4.00;;
44508;SDS011;30214;52.246;14.408;2023-03-04T10:27:48;9.15;;;3.00;;
44508;SDS011;30214;52.246;14.408;2023-03-04T10:30:21;9.65;;;3.80;;
44508;SDS011;30214;52.246;14.408;2023-03-04T10:33:00;11.65;;;3.50;;
44508;SDS011;30214;52.246;14.408;2023-03-04T10:35:32;10.25;;;2.92;;
44508;SDS011;30214;52.246;14.408;2023-03-04T10:38:04;8.73;;;3.35;;
44508;SDS011;30214;52.246;14.408;2023-03-04T10:40:36;7.82;;;3.08;;
44508;SDS011;30214;52.246;14.408;2023-03-04T10:43:12;5.95;;;2.97;;
44508;SDS011;30214;52.246;14.408;2023-03-04T10:45:41;8.68;;;2.78;;
44508;SDS011;30214;52.246;14.408;2023-03-04T10:48:19;10.43;;;3.15;;
44508;SDS011;30214;52.246;14.408;2023-03-04T10:50:51;10.10;;;2.88;;
44508;SDS011;30214;52.246;14.408;2023-03-04T10:53:24;7.97;;;2.67;;
44508;SDS011;30214;52.246;14.408;2023-03-04T10:55:58;11.85;;;3.03;;
44508;SDS011;30214;52.246;14.408;2023-03-04T10:58:26;10.45;;;2.70;;
44508;SDS011;30214;52.246;14.408;2023-03-04T11:01:01;12.98;;;3.20;;
44508;SDS011;30214;52.246;14.408;2023-03-04T11:03:31;7.10;;;2.80;;
44508;SDS011;30214;52.246;14.408;2023-03-04T11:06:07;5.85;;;2.35;;
44508;SDS011;30214;52.246;14.408;2023-03-04T11:08:42;5.93;;;2.47;;
44508;SDS011;30214;52.246;14.408;2023-03-04T11:11:20;11.57;;;2.45;;
44508;SDS011;30214;52.246;14.408;2023-03-04T11:13:50;10.45;;;2.60;;
44508;SDS011;30214;52.246;14.408;2023-03-04T11:16:23;9.18;;;3.05;;
44508;SDS011;30214;52.246;14.408;2023-03-04T11:18:56;12.00;;;2.80;;
44508;SDS011;30214;52.246;14.408;2023-03-04T11:21:33;13.05;;;2.95;;
44508;SDS011;30214;52.246;14.408;2023-03-04T11:24:07;11.43;;;2.42;;
44508;SDS011;30214;52.246;14.408;2023-03-04T11:26:40;12.32;;;4.18;;
44508;SDS011;30214;52.246;14.408;2023-03-04T11:29:13;7.75;;;2.25;;
44508;SDS011;30214;52.246;14.408;2023-03-04T11:31:45;17.52;;;3.25;;
44508;SDS011;30214;52.246;14.408;2023-03-04T11:34:19;10.57;;;2.45;;
44508;SDS011;30214;52.246;14.408;2023-03-04T11:37:00;11.98;;;2.40;;
44508;SDS011;30214;52.246;14.408;2023-03-04T11:39:34;11.50;;;3.03;;
44508;SDS011;30214;52.246;14.408;2023-03-04T11:42:05;14.73;;;3.45;;
44508;SDS011;30214;52.246;14.408;2023-03-04T11:44:41;17.58;;;6.07;;
44508;SDS011;30214;52.246;14.408;2023-03-04T11:50:26;18.05;;;5.13;;
44508;SDS011;30214;52.246;14.408;2023-03-04T11:53:02;14.43;;;4.00;;
44508;SDS011;30214;52.246;14.408;2023-03-04T11:58:47;12.10;;;3.60;;
44508;SDS011;30214;52.246;14.408;2023-03-04T12:01:38;10.93;;;2.83;;
44508;SDS011;30214;52.246;14.408;2023-03-04T12:04:23;13.43;;;2.70;;
44508;SDS011;30214;52.246;14.408;2023-03-04T12:07:13;12.85;;;2.13;;
44508;SDS011;30214;52.246;14.408;2023-03-04T12:10:02;16.27;;;3.05;;
44508;SDS011;30214;52.246;14.408;2023-03-04T12:12:44;11.70;;;2.42;;
44508;SDS011;30214;52.246;14.408;2023-03-04T12:15:27;10.27;;;2.90;;
44508;SDS011;30214;52.246;14.408;2023-03-04T12:18:10;11.50;;;2.50;;
44508;SDS011;30214;52.246;14.408;2023-03-04T12:21:12;14.38;;;2.92;;
44508;SDS011;30214;52.246;14.408;2023-03-04T12:27:03;10.73;;;3.53;;
44508;SDS011;30214;52.246;14.408;2023-03-04T12:29:44;14.38;;;3.92;;
44508;SDS011;30214;52.246;14.408;2023-03-04T12:32:22;9.63;;;3.00;;
44508;SDS011;30214;52.246;14.408;2023-03-04T12:35:04;14.73;;;3.13;;
44508;SDS011;30214;52.246;14.408;2023-03-04T12:40:56;14.57;;;3.95;;
44508;SDS011;30214;52.246;14.408;2023-03-04T12:43:35;17.50;;;4.30;;
44508;SDS011;30214;52.246;14.408;2023-03-04T12:46:17;13.10;;;3.10;;
44508;SDS011;30214;52.246;14.408;2023-03-04T12:49:01;14.40;;;2.75;;
44508;SDS011;30214;52.246;14.408;2023-03-04T12:51:51;18.10;;;2.92;;
44508;SDS011;30214;52.246;14.408;2023-03-04T12:54:30;13.98;;;3.70;;
44508;SDS011;30214;52.246;14.408;2023-03-04T12:57:01;11.63;;;3.13;;
44508;SDS011;30214;52.246;14.408;2023-03-04T12:59:38;11.77;;;2.47;;
44508;SDS011;30214;52.246;14.408;2023-03-04T13:02:20;15.95;;;2.70;;
44508;SDS011;30214;52.246;14.408;2023-03-04T13:05:27;11.50;;;2.58;;
44508;SDS011;30214;52.246;14.408;2023-03-04T13:08:07;11.50;;;4.25;;
44508;SDS011;30214;52.246;14.408;2023-03-04T13:10:50;12.88;;;2.72;;
44508;SDS011;30214;52.246;14.408;2023-03-04T13:13:34;13.60;;;3.67;;
44508;SDS011;30214;52.246;14.408;2023-03-04T13:16:06;16.33;;;3.55;;
44508;SDS011;30214;52.246;14.408;2023-03-04T13:18:56;12.35;;;2.88;;
44508;SDS011;30214;52.246;14.408;2023-03-04T13:21:24;12.82;;;2.20;;
44508;SDS011;30214;52.246;14.408;2023-03-04T13:23:54;11.05;;;2.47;;
44508;SDS011;30214;52.246;14.408;2023-03-04T13:26:23;13.50;;;2.85;;
44508;SDS011;30214;52.246;14.408;2023-03-04T13:29:09;16.10;;;3.00;;
44508;SDS011;30214;52.246;14.408;2023-03-04T13:32:01;13.07;;;2.72;;
44508;SDS011;30214;52.246;14.408;2023-03-04T13:34:44;14.13;;;3.13;;
44508;SDS011;30214;52.246;14.408;2023-03-04T13:45:54;12.93;;;2.53;;
44508;SDS011;30214;52.246;14.408;2023-03-04T13:48:27;22.23;;;3.20;;
44508;SDS011;30214;52.246;14.408;2023-03-04T13:51:00;10.63;;;2.80;;
44508;SDS011;30214;52.246;14.408;2023-03-04T13:53:29;13.77;;;2.75;;
44508;SDS011;30214;52.246;14.408;2023-03-04T13:56:09;16.63;;;2.88;;
44508;SDS011;30214;52.246;14.408;2023-03-04T13:59:04;15.52;;;3.13;;
44508;SDS011;30214;52.246;14.408;2023-03-04T14:01:58;14.45;;;2.90;;
44508;SDS011;30214;52.246;14.408;2023-03-04T14:04:31;13.50;;;3.00;;
44508;SDS011;30214;52.246;14.408;2023-03-04T14:07:01;14.02;;;2.90;;
44508;SDS011;30214;52.246;14.408;2023-03-04T14:09:52;15.18;;;2.70;;
44508;SDS011;30214;52.246;14.408;2023-03-04T14:12:22;12.75;;;2.80;;
44508;SDS011;30214;52.246;14.408;2023-03-04T14:14:51;14.25;;;2.38;;
44508;SDS011;30214;52.246;14.408;2023-03-04T14:17:21;18.55;;;3.03;;
44508;SDS011;30214;52.246;14.408;2023-03-04T14:19:53;14.02;;;2.50;;
44508;SDS011;30214;52.246;14.408;2023-03-04T14:22:22;14.60;;;2.60;;
44508;SDS011;30214;52.246;14.408;2023-03-04T14:24:56;15.73;;;3.03;;
44508;SDS011;30214;52.246;14.408;2023-03-04T14:27:24;12.27;;;2.95;;
44508;SDS011;30214;52.246;14.408;2023-03-04T14:29:55;15.25;;;2.63;;
44508;SDS011;30214;52.246;14.408;2023-03-04T14:32:25;12.93;;;2.65;;
44508;SDS011;30214;52.246;14.408;2023-03-04T14:34:56;12.32;;;3.38;;
44508;SDS011;30214;52.246;14.408;2023-03-04T14:37:29;13.38;;;2.10;;
44508;SDS011;30214;52.246;14.408;2023-03-04T14:40:04;15.00;;;2.50;;
44508;SDS011;30214;52.246;14.408;2023-03-04T14:42:38;12.95;;;2.53;;
44508;SDS011;30214;52.246;14.408;2023-03-04T14:45:11;13.40;;;2.13;;
44508;SDS011;30214;52.246;14.408;2023-03-04T14:47:42;10.23;;;2.15;;
44508;SDS011;30214;52.246;14.408;2023-03-04T14:50:14;14.45;;;2.80;;
44508;SDS011;30214;52.246;14.408;2023-03-04T14:52:44;9.13;;;1.80;;
44508;SDS011;30214;52.246;14.408;2023-03-04T14:55:17;14.15;;;2.35;;
44508;SDS011;30214;52.246;14.408;2023-03-04T14:57:50;9.23;;;2.28;;
44508;SDS011;30214;52.246;14.408;2023-03-04T15:00:24;13.30;;;2.53;;
44508;SDS011;30214;52.246;14.408;2023-03-04T15:05:28;14.20;;;2.40;;
44508;SDS011;30214;52.246;14.408;2023-03-04T15:07:57;15.52;;;2.85;;
44508;SDS011;30214;52.246;14.408;2023-03-04T15:10:27;14.27;;;2.40;;